Airfield :
LOGIN :

Register | Disclaimer

   EN    FR    IT 

 










Legend :    VFR   Marginal VFR   IFR   Intensive IFR   Very Intensive IFR
Visi :
Ceiling :
>= 8 km
>= 3000ft
5 to 8 km
1000 to 3000 ft
1500m to 5 km
500 to 1000 ft
800 to 1500m
200 to 500 ft
< 800m
< 200 ft
Symbols :   Thunderstorms  Fog  Heavy snow  Heavy precipitations  Wind > 20 kt
SIGMETs :     Misc.  Thunderstorms  Icing  Turbulence  Mountain Waves  Volcanic Ashes






- Airport Elevation : 100 ft
- IATA code : DCI


LIED - Decimomannu Air Base

CURRENT METAR :
  • 102355Z 03006KT CAVOK 09/07 Q1016 RMK SKC VIS MIN 9999 WIND THR35 03006KT WIND THR17 /////KT BLU

EXPIRED METARs :
  • 102255Z 01004KT CAVOK 08/06 Q1016 RMK SKC VIS MIN 9999 WIND THR35 04002KT WIND THR17 /////KT BLU
  • 102155Z 36007KT CAVOK 10/06 Q1016 RMK SKC VIS MIN 9999 WIND THR35 01007KT WIND THR17 /////KT BLU

TAF TAF LIED
Valid from the 11 at 00:00 until the 11 at 09:00 UTC


102300Z 1100/1109 34010KT CAVOK



MET'MAP, your aeronautical weather chart ! - Copyright ORBIFLY December 2007 - Disclaimer

ORBIFLY MET'MAP TEAM :

Programming & Development : Alexandra Zaïnal
Concept & original design : Baudouin d'Aumeries
Assistance for programming : Marc-Olivier Méhu
Technical & hardware support : Manuel Goepfert

Contact : metmap@orbifly.com




SOURCES & CREDITS :

   NOAA